Weather at Victoria Harbour Seaplane Base

Public forecast

Using degrees Celsius for public forecast. Weather courtesy of forecast.io.

Current aviation weather report (METAR) for Victoria Harbour Seaplane Base

2024/05/18 22:00 (retrieved 40 minutes ago)

CYWH 182200Z 24018KT 15SM VCSH FEW020TCU BKN050 BKN140 13/04 A3004 RMK TCU2SC3AC2 SLP175

Aviation forecast (TAF) for Victoria Harbour Seaplane Base

2024/05/18 21:00 (retrieved 2 hours ago)

TAF CYWH 182040Z 1821/1904 24020KT P6SM SCT050 BECMG 1822/1824 24012KT RMK NXT FCST BY 191400Z